Terminal Aerodrome Forecast
Issued by NWS

Home | Current Version | Previous Version | Text Only | Print | Product List | Glossary On
Versions: 1 2 3 4 5 6 7 8 9 10 11 12 13 14 15
000
FTUS45 KRIW 250500
TAFCPR
TAF
KCPR 250526Z 2506/2606 24010KT P6SM VCSH SCT050 BKN100
     FM250900 27011KT P6SM VCSH SCT030 OVC050
     FM251600 36011KT 2SM -SHSN BR OVC018
     FM260000 02011KT 5SM -SN OVC025=

USA.gov is the U.S. government's official web portal to all federal, state and local government web resources and services.